Latest Weather Observations for Jimna

IDQ60801

Issued at 2:35 am EST Sunday 26 October 2014 (issued every 30 minutes, with the page automatically refreshed every 10 minutes)

About weather observations | Map of weather stations | Latest weather observations for QLD | Other Formats
Station Details ID: 040651 Name: JIMNA FORESTRY Lat: -26.66 Lon: 152.46 Height: 523.0 m
Data from the previous 72 hours. | See also: Recent months at Jimna
Date/Time
EST
Temp
°C
App
Temp
°C
Dew
Point
Rel
Hum
%
Delta-T
°C
Wind Press
QNH
hPa
Press
MSL
hPa
Rain
since 9 am
mm
Dir
 
Spd
km/h
Gust
km/h
Spd
kts
Gust
kts
26/02:30am 15.0 - 11.6 80 1.9 - - - - - - - 0.0
26/02:00am 15.0 - 11.4 79 2.0 - - - - - - - 0.0
26/01:30am 15.0 - 11.0 77 2.2 - - - - - - - 0.0
26/01:00am 16.0 - 11.8 76 2.3 - - - - - - - 0.0
26/12:30am 16.4 - 12.0 75 2.5 - - - - - - - 0.0
26/12:00am 17.0 - 11.9 72 2.9 - - - - - - - 0.0
 
Date/Time
EST
Temp
°C
App
Temp
°C
Dew
Point
Rel
Hum
%
Delta-T
°C
Wind Press
QNH
hPa
Press
MSL
hPa
Rain
since 9 am
mm
Dir
 
Spd
km/h
Gust
km/h
Spd
kts
Gust
kts
25/11:30pm 17.4 - 12.3 72 2.9 - - - - - - - 0.0
25/11:00pm 18.0 - 12.7 71 3.0 - - - - - - - 0.0
25/10:30pm 18.6 - 13.0 70 3.2 - - - - - - - 0.0
25/10:00pm 19.1 - 13.1 68 3.5 - - - - - - - 0.0
25/09:30pm 19.9 - 13.1 65 4.0 - - - - - - - 0.0
25/09:00pm 21.0 - 12.9 60 4.7 - - - - - - - 0.0
25/08:30pm 21.5 - 12.9 58 5.0 - - - - - - - 0.0
25/08:00pm 22.4 - 12.9 55 5.6 - - - - - - - 0.0
25/07:30pm 23.0 - 12.9 53 5.9 - - - - - - - 0.0
25/07:00pm 23.4 - 12.7 51 6.3 - - - - - - - 0.0
25/06:30pm 24.6 - 12.2 46 7.3 - - - - - - - 0.0
25/06:00pm 26.0 - 11.0 39 8.7 - - - - - - - 0.0
25/05:30pm 27.4 - 10.2 34 9.9 - - - - - - - 0.0
25/05:00pm 28.3 - 10.0 32 10.5 - - - - - - - 0.0
25/04:30pm 29.7 - 8.7 27 11.9 - - - - - - - 0.0
25/04:00pm 30.3 - 9.2 27 12.1 - - - - - - - 0.0
25/03:30pm 31.0 - 9.3 26 12.5 - - - - - - - 0.0
25/03:00pm 31.1 - 9.3 26 12.5 - - - - - - - 0.0
25/02:30pm 30.4 - 8.2 25 12.5 - - - - - - - 0.0
25/02:00pm 30.7 - 9.6 27 12.2 - - - - - - - 0.0
25/01:30pm 30.9 - 10.3 28 12.0 - - - - - - - 0.0
25/01:00pm 29.1 - 8.2 27 11.7 - - - - - - - 0.0
25/12:30pm 29.1 - 9.8 30 11.1 - - - - - - - 0.0
25/12:00pm 28.4 - 10.1 32 10.5 - - - - - - - 0.0
25/11:30am 26.9 - 9.7 34 9.8 - - - - - - - 0.0
25/11:00am 26.7 - 10.8 37 9.2 - - - - - - - 0.0
25/10:30am 25.4 - 11.6 42 8.0 - - - - - - - 0.0
25/10:00am 24.0 - 11.3 45 7.3 - - - - - - - 0.0
25/09:30am 23.2 - 11.6 48 6.7 - - - - - - - 0.0
25/09:00am 22.3 - 11.4 50 6.2 - - - - - - - 0.0
25/08:30am 20.7 - 11.1 54 5.4 - - - - - - - 0.0
25/08:00am 19.9 - 12.2 61 4.4 - - - - - - - 0.0
25/07:30am 18.1 - 11.4 65 3.7 - - - - - - - 0.0
25/07:00am 17.4 - 12.7 74 2.7 - - - - - - - 0.0
25/06:30am 16.1 - 12.8 81 1.9 - - - - - - - 0.0
25/06:00am 13.8 - 12.4 91 0.8 - - - - - - - 0.0
25/05:30am 11.9 - 10.6 92 0.7 - - - - - - - 0.0
25/05:00am 11.8 - 10.2 90 0.8 - - - - - - - 0.0
25/04:30am 12.2 - 10.4 89 1.0 - - - - - - - 0.0
25/04:00am 12.7 - 11.1 90 0.9 - - - - - - - 0.0
25/03:30am 12.9 - 10.8 87 1.1 - - - - - - - 0.0
25/03:00am 13.4 - 11.1 86 1.2 - - - - - - - 0.0
25/02:30am 13.8 - 11.5 86 1.3 - - - - - - - 0.0
25/02:00am 13.4 - 11.3 87 1.1 - - - - - - - 0.0
25/01:30am 13.9 - 11.6 86 1.3 - - - - - - - 0.0
25/01:00am 13.6 - 11.1 85 1.4 - - - - - - - 0.0
25/12:30am 13.6 - 11.1 85 1.4 - - - - - - - 0.0
25/12:00am 14.0 - 11.2 83 1.5 - - - - - - - 0.0
 
Date/Time
EST
Temp
°C
App
Temp
°C
Dew
Point
Rel
Hum
%
Delta-T
°C
Wind Press
QNH
hPa
Press
MSL
hPa
Rain
since 9 am
mm
Dir
 
Spd
km/h
Gust
km/h
Spd
kts
Gust
kts
24/11:30pm 14.3 - 11.5 83 1.5 - - - - - - - 0.0
24/11:00pm 14.6 - 11.6 82 1.7 - - - - - - - 0.0
24/10:30pm 14.7 - 11.5 81 1.8 - - - - - - - 0.0
24/10:00pm 15.0 - 11.8 81 1.8 - - - - - - - 0.0
24/09:30pm 15.4 - 12.0 80 1.9 - - - - - - - 0.0
24/09:00pm 15.6 - 12.2 80 1.9 - - - - - - - 0.0
24/08:30pm 15.8 - 12.2 79 2.0 - - - - - - - 0.0
24/08:00pm 16.2 - 12.2 77 2.2 - - - - - - - 0.0
24/07:30pm 16.6 - 11.9 74 2.6 - - - - - - - 0.0
24/07:00pm 17.2 - 11.9 71 3.0 - - - - - - - 0.0
24/06:30pm 18.1 - 12.1 68 3.4 - - - - - - - 0.0
24/06:00pm 19.2 - 12.5 65 3.8 - - - - - - - 0.0
24/05:30pm 20.5 - 12.5 60 4.6 - - - - - - - 0.0
24/05:00pm 21.9 - 12.7 56 5.4 - - - - - - - 0.0
24/04:30pm 23.6 - 12.9 51 6.3 - - - - - - - 0.0
24/04:00pm 24.5 - 12.5 47 7.1 - - - - - - - 0.0
24/03:30pm 25.6 - 12.4 43 7.8 - - - - - - - 0.0
24/03:00pm 26.6 - 10.3 36 9.3 - - - - - - - 0.0
24/02:30pm 27.2 - 10.0 34 9.8 - - - - - - - 0.0
24/02:00pm 27.9 - 10.6 34 10.0 - - - - - - - 0.0
24/01:30pm 27.6 - 10.3 34 9.9 - - - - - - - 0.0
24/01:00pm 27.0 - 10.7 36 9.4 - - - - - - - 0.0
24/12:30pm 25.2 - 10.6 40 8.3 - - - - - - - 0.0
24/12:00pm 26.8 - 10.9 37 9.2 - - - - - - - 0.0
24/11:30am 25.2 - 11.4 42 8.0 - - - - - - - 0.0
24/11:00am 24.1 - 10.4 42 7.8 - - - - - - - 0.0
24/10:30am 23.6 - 11.0 45 7.2 - - - - - - - 0.0
24/10:00am 23.2 - 10.9 46 7.0 - - - - - - - 0.0
24/09:30am 22.1 - 11.2 50 6.2 - - - - - - - 0.0
24/09:00am 21.2 - 11.0 52 5.8 - - - - - - - 0.0
24/08:30am 20.3 - 10.7 54 5.4 - - - - - - - 0.0
24/08:00am 19.2 - 11.7 62 4.2 - - - - - - - 0.0
24/07:30am 17.8 - 11.6 67 3.5 - - - - - - - 0.0
24/07:00am 16.8 - 12.5 76 2.4 - - - - - - - 0.0
24/06:30am 14.3 - 12.3 88 1.1 - - - - - - - 0.0
24/06:00am 10.8 - 10.9 - - - - - - - - - 0.0
24/05:30am 9.6 - 8.4 92 0.6 - - - - - - - 0.0
24/05:00am 9.4 - 8.0 91 0.7 - - - - - - - 0.0
24/04:30am 9.8 - 8.4 91 0.7 - - - - - - - 0.0
24/04:00am 9.9 - 8.3 90 0.8 - - - - - - - 0.0
24/03:30am 10.2 - 8.6 90 0.8 - - - - - - - 0.0
24/03:00am 10.6 - 9.0 90 0.8 - - - - - - - 0.0
24/02:30am 11.1 - 9.4 89 0.9 - - - - - - - 0.0
24/02:00am 11.3 - 9.6 89 0.9 - - - - - - - 0.0
24/01:30am 11.7 - 10.1 90 0.8 - - - - - - - 0.0
24/01:00am 11.7 - 9.9 89 0.9 - - - - - - - 0.0
24/12:30am 11.9 - 9.6 86 1.2 - - - - - - - 0.0
24/12:00am 12.6 - 10.1 85 1.3 - - - - - - - 0.0
 
Date/Time
EST
Temp
°C
App
Temp
°C
Dew
Point
Rel
Hum
%
Delta-T
°C
Wind Press
QNH
hPa
Press
MSL
hPa
Rain
since 9 am
mm
Dir
 
Spd
km/h
Gust
km/h
Spd
kts
Gust
kts
23/11:30pm 13.2 - 10.4 83 1.5 - - - - - - - 0.0
23/11:00pm 13.9 - 10.7 81 1.7 - - - - - - - 0.0
23/10:30pm 14.2 - 10.8 80 1.8 - - - - - - - 0.0
23/10:00pm 14.5 - 10.9 79 2.0 - - - - - - - 0.0
23/09:30pm 15.2 - 11.0 76 2.3 - - - - - - - 0.0
23/09:00pm 15.6 - 11.2 75 2.4 - - - - - - - 0.0
23/08:30pm 16.0 - 11.0 72 2.7 - - - - - - - 0.0
23/08:00pm 16.6 - 11.3 71 2.9 - - - - - - - 0.0
23/07:30pm 17.5 - 11.3 67 3.4 - - - - - - - 0.0
23/07:00pm 18.7 - 11.5 63 4.0 - - - - - - - 0.0
23/06:30pm 19.8 - 11.3 58 4.8 - - - - - - - 0.0
23/06:00pm 21.2 - 11.5 54 5.5 - - - - - - - 0.0
23/05:30pm 22.4 - 11.5 50 6.2 - - - - - - - 0.0
23/05:00pm 23.4 - 11.1 46 7.0 - - - - - - - 0.0
23/04:30pm 25.1 - 9.4 37 8.8 - - - - - - - 0.0
23/04:00pm 26.0 - 5.6 27 10.7 - - - - - - - 0.0
23/03:30pm 26.4 - 6.4 28 10.7 - - - - - - - 0.0
23/03:00pm 26.4 - 6.4 28 10.7 - - - - - - - 0.0
23/02:30pm 26.2 - 6.3 28 10.6 - - - - - - - 0.0
23/02:00pm 27.0 - 6.4 27 11.1 - - - - - - - 0.0
23/01:30pm 27.3 - 7.2 28 11.0 - - - - - - - 0.0
23/01:00pm 27.2 - 7.6 29 10.7 - - - - - - - 0.0
23/12:30pm 25.8 - 6.4 29 10.3 - - - - - - - 0.0
23/12:00pm 25.5 - 8.5 34 9.4 - - - - - - - 0.0
23/11:30am 23.8 - 9.4 40 8.0 - - - - - - - 0.0
23/11:00am 24.3 - 9.8 40 8.1 - - - - - - - 0.0
23/10:30am 22.8 - 8.5 40 7.8 - - - - - - - 0.0
23/10:00am 21.2 - 8.1 43 7.0 - - - - - - - 0.0
23/09:30am 20.8 - 8.1 44 6.8 - - - - - - - 0.0
23/09:00am 20.2 - 8.2 46 6.4 - - - - - - - 0.0
23/08:30am 19.2 - 9.4 53 5.3 - - - - - - - 0.0
23/08:00am 17.8 - 9.2 57 4.6 - - - - - - - 0.0
23/07:30am 17.2 - 11.2 68 3.3 - - - - - - - 0.0
23/07:00am 14.6 - 11.2 80 1.9 - - - - - - - 0.0
23/06:30am 10.7 - 9.0 89 0.9 - - - - - - - 0.0
23/06:00am 8.3 - 8.3 100 0.0 - - - - - - - 0.0
23/05:30am 6.8 - 5.4 91 0.6 - - - - - - - 0.0
23/05:00am 7.1 - 5.7 91 0.6 - - - - - - - 0.0
23/04:30am 7.5 - 6.1 91 0.7 - - - - - - - 0.0
23/04:00am 7.8 - 6.3 90 0.7 - - - - - - - 0.0
23/03:30am 8.1 - 6.4 89 0.8 - - - - - - - 0.0
23/03:00am 8.7 - 7.2 90 0.7 - - - - - - - 0.0

Other Formats:

Comma delimited format used in spreadsheet applications
http://www.bom.gov.au/fwo/IDQ60801/IDQ60801.94557.axf

JavaScript Object Notation format (JSON) in row-major order
http://www.bom.gov.au/fwo/IDQ60801/IDQ60801.94557.json